Meteógrafos Informações Meteorológicas em tempo real
Aeroporto de Congonhas
15-12-2019 14:56

Temperatura atual: 30 graus 86 F    Umidade relativa: 45 %
Velocidade do vento: 09 nós 16 Km/h    Direção: 020 graus NNE
Ajuste do altímetro ..: 1018 HPA
Visibilidade: Ótima    Tempo presente: Poucas nuvens esparsas

Observação
Poucas nuvens a 4300 Pés., Nuvens esparsas a 5000 Pés.
Data Hora BRTTempo°CUmidadePressãoVentoVisib.
15/12 - 14:56   Poucas nuvens esparsas 30° 45% 1018 Norte-nordeste/16 km/h 9999
15/12 - 13:56   Não Disponível ND° ND% ND Norte/12 km/h 9999
15/12 - 12:56   Poucas nuvens esparsas 28° 58% 1019 Noroeste/16 km/h OK
15/12 - 11:56   Não Disponível 27° 58% 1020 Norte-noroeste/21 km/h OK
15/12 - 10:56   Poucas nuvens esparsas 26° 61% 1020 Norte/18 km/h OK
15/12 - 09:56   Não Disponível 25° 69% 1020 Norte/12 km/h OK
15/12 - 08:56   Não Disponível 23° 78% 1020 Nordeste/12 km/h OK
15/12 - 07:56   Não Disponível 22° 83% 1020 Nordeste/14 km/h OK
15/12 - 06:56   Parcialmente Nublado 21° 83% 1020 Nordeste/10 km/h OK
15/12 - 05:56   Muitas Nuvens 21° 83% 1019 Nordeste/10 km/h 9999
15/12 - 04:56   Poucas nuvens esparsas 20° 88% 1019 Nordeste/5 km/h 9999
15/12 - 03:56   Muitas Nuvens 20° 88% 1019 Nordeste/5 km/h 9999
15/12 - 02:56   Muitas Nuvens 21° 83% 1019 Este-sudeste/9 km/h 9999
15/12 - 01:56   Poucas nuvens esparsas 21° 88% 1020 Sudeste/14 km/h OK
15/12 - 00:56   Parcialmente Nublado 21° 88% 1020 Sudeste/10 km/h 9999
14/12 - 23:56   Poucas nuvens esparsas 21° 88% 1022 Sul-sudeste/9 km/h OK
14/12 - 22:56   Céu Encoberto 21° 88% 1022 Sul-sudeste/12 km/h OK
14/12 - 21:56   Parcialmente Nublado 21° 88% 1022 Sudeste/10 km/h OK
14/12 - 20:56   Céu Encoberto 21° 88% 1021 Sudeste/10 km/h 7000
14/12 - 19:56   Névoa úmida 21° 88% 1021 Sul-sudeste/18 km/h 5000
14/12 - 18:56   Parcialmente Nublado 21° 88% 1021 Sul-sudeste/14 km/h 7000
14/12 - 17:56   Chuva fraca e trovoadas 21° 88% 1021 Sul/5 km/h 8000
14/12 - 16:56   Chuva forte e trovoadas 20° 93% 1022 Norte-noroeste/10 km/h 3000
14/12 - 15:56   Parcialmente Nublado 24° 73% 1021 Sul/27 km/h OK

Termo de Uso  |   Links Úteis  |   Imprensa  |  Anuncie  |  Fale Conosco  |  Versão Celular  |   Política de Privacidade

Apolo11.com - Todos os direitos reservados - 2000 - 2019

"Amargas são as lágrimas derramadas, mas ainda mais amargas são as que não se derramam" - Provérbio irlandês